sensor_id;sensor_type;location;lat;lon;timestamp;temperature;humidity
44763;DHT22;30483;49.576;6.036;2024-03-25T04:32:09;14.30;99.90
44763;DHT22;30483;49.576;6.036;2024-03-25T04:34:35;14.30;99.90
44763;DHT22;30483;49.576;6.036;2024-03-25T04:37:01;14.30;99.90
44763;DHT22;30483;49.576;6.036;2024-03-25T04:39:26;14.30;99.90
44763;DHT22;30483;49.576;6.036;2024-03-25T04:41:52;14.30;99.90
44763;DHT22;30483;49.576;6.036;2024-03-25T04:44:18;14.30;99.90
44763;DHT22;30483;49.576;6.036;2024-03-25T04:46:43;14.30;99.90
44763;DHT22;30483;49.576;6.036;2024-03-25T04:49:10;14.30;99.90
44763;DHT22;30483;49.576;6.036;2024-03-25T04:51:35;14.30;99.90
44763;DHT22;30483;49.576;6.036;2024-03-25T04:54:01;14.30;99.90
44763;DHT22;30483;49.576;6.036;2024-03-25T04:56:27;14.40;99.90
44763;DHT22;30483;49.576;6.036;2024-03-25T04:58:52;14.40;99.90
44763;DHT22;30483;49.576;6.036;2024-03-25T05:01:18;14.40;99.90
44763;DHT22;30483;49.576;6.036;2024-03-25T05:03:44;14.30;99.90
44763;DHT22;30483;49.576;6.036;2024-03-25T05:06:10;14.30;99.90
44763;DHT22;30483;49.576;6.036;2024-03-25T05:08:39;14.40;99.90
44763;DHT22;30483;49.576;6.036;2024-03-25T05:11:09;14.40;99.90
44763;DHT22;30483;49.576;6.036;2024-03-25T05:13:40;14.40;99.90
44763;DHT22;30483;49.576;6.036;2024-03-25T05:16:06;14.30;99.90
44763;DHT22;30483;49.576;6.036;2024-03-25T05:18:33;14.40;99.90
44763;DHT22;30483;49.576;6.036;2024-03-25T05:20:59;14.40;99.90
44763;DHT22;30483;49.576;6.036;2024-03-25T05:23:24;14.40;99.90
44763;DHT22;30483;49.576;6.036;2024-03-25T05:25:50;14.40;99.90
44763;DHT22;30483;49.576;6.036;2024-03-25T05:28:16;14.40;99.90
44763;DHT22;30483;49.576;6.036;2024-03-25T05:30:41;14.40;99.90
44763;DHT22;30483;49.576;6.036;2024-03-25T05:33:07;14.20;99.90
44763;DHT22;30483;49.576;6.036;2024-03-25T05:35:32;14.20;99.90
44763;DHT22;30483;49.576;6.036;2024-03-25T05:38:02;14.10;99.90
44763;DHT22;30483;49.576;6.036;2024-03-25T05:40:29;14.10;99.90
44763;DHT22;30483;49.576;6.036;2024-03-25T05:42:54;14.20;99.90
44763;DHT22;30483;49.576;6.036;2024-03-25T05:45:20;14.20;99.90
44763;DHT22;30483;49.576;6.036;2024-03-25T05:47:45;14.20;99.90
44763;DHT22;30483;49.576;6.036;2024-03-25T05:50:11;14.20;99.90
44763;DHT22;30483;49.576;6.036;2024-03-25T05:52:37;14.20;99.90
44763;DHT22;30483;49.576;6.036;2024-03-25T05:55:03;14.30;99.90
44763;DHT22;30483;49.576;6.036;2024-03-25T05:57:29;14.20;99.90
44763;DHT22;30483;49.576;6.036;2024-03-25T05:59:54;14.00;99.90
44763;DHT22;30483;49.576;6.036;2024-03-25T06:02:20;14.00;99.90
44763;DHT22;30483;49.576;6.036;2024-03-25T06:04:45;14.00;99.90
44763;DHT22;30483;49.576;6.036;2024-03-25T06:07:12;14.00;99.90
44763;DHT22;30483;49.576;6.036;2024-03-25T06:09:37;14.10;99.90
44763;DHT22;30483;49.576;6.036;2024-03-25T06:12:03;14.10;99.90
44763;DHT22;30483;49.576;6.036;2024-03-25T06:14:28;14.20;99.90
44763;DHT22;30483;49.576;6.036;2024-03-25T06:16:54;14.20;99.90
44763;DHT22;30483;49.576;6.036;2024-03-25T06:19:20;14.20;99.90
44763;DHT22;30483;49.576;6.036;2024-03-25T06:21:45;14.30;99.90
44763;DHT22;30483;49.576;6.036;2024-03-25T06:24:11;14.30;99.90
44763;DHT22;30483;49.576;6.036;2024-03-25T06:26:37;14.40;99.90
44763;DHT22;30483;49.576;6.036;2024-03-25T06:29:02;14.20;99.90
44763;DHT22;30483;49.576;6.036;2024-03-25T06:31:28;14.20;99.90
44763;DHT22;30483;49.576;6.036;2024-03-25T06:34:12;14.20;99.90
44763;DHT22;30483;49.576;6.036;2024-03-25T06:36:44;14.20;99.90
44763;DHT22;30483;49.576;6.036;2024-03-25T06:39:10;14.20;99.90
44763;DHT22;30483;49.576;6.036;2024-03-25T06:41:36;14.20;99.90
44763;DHT22;30483;49.576;6.036;2024-03-25T06:44:02;14.20;99.90
44763;DHT22;30483;49.576;6.036;2024-03-25T06:46:28;14.20;99.90
44763;DHT22;30483;49.576;6.036;2024-03-25T06:48:53;14.20;99.90
44763;DHT22;30483;49.576;6.036;2024-03-25T06:51:19;14.30;99.90
44763;DHT22;30483;49.576;6.036;2024-03-25T06:53:44;14.30;99.90
44763;DHT22;30483;49.576;6.036;2024-03-25T06:56:10;14.30;99.90
44763;DHT22;30483;49.576;6.036;2024-03-25T06:58:36;14.30;99.90
44763;DHT22;30483;49.576;6.036;2024-03-25T07:01:07;14.30;99.90
44763;DHT22;30483;49.576;6.036;2024-03-25T07:03:33;14.30;99.90
44763;DHT22;30483;49.576;6.036;2024-03-25T07:05:59;14.30;99.90
44763;DHT22;30483;49.576;6.036;2024-03-25T07:08:26;13.80;99.90
44763;DHT22;30483;49.576;6.036;2024-03-25T07:10:52;13.80;99.90
44763;DHT22;30483;49.576;6.036;2024-03-25T07:13:18;13.80;99.90
44763;DHT22;30483;49.576;6.036;2024-03-25T07:15:52;13.90;99.90
44763;DHT22;30483;49.576;6.036;2024-03-25T07:18:18;13.90;99.90
44763;DHT22;30483;49.576;6.036;2024-03-25T07:20:44;14.00;99.90
44763;DHT22;30483;49.576;6.036;2024-03-25T07:23:10;14.00;99.90
44763;DHT22;30483;49.576;6.036;2024-03-25T07:25:36;14.10;99.90
44763;DHT22;30483;49.576;6.036;2024-03-25T07:28:05;14.10;99.90
44763;DHT22;30483;49.576;6.036;2024-03-25T07:30:31;14.20;99.90
44763;DHT22;30483;49.576;6.036;2024-03-25T07:32:58;14.20;99.90
44763;DHT22;30483;49.576;6.036;2024-03-25T07:35:24;14.30;99.90
44763;DHT22;30483;49.576;6.036;2024-03-25T07:37:50;14.30;99.90
44763;DHT22;30483;49.576;6.036;2024-03-25T07:40:20;14.40;99.90
44763;DHT22;30483;49.576;6.036;2024-03-25T07:42:47;14.40;99.90
44763;DHT22;30483;49.576;6.036;2024-03-25T07:45:12;14.40;99.90
44763;DHT22;30483;49.576;6.036;2024-03-25T07:47:38;14.40;99.90
44763;DHT22;30483;49.576;6.036;2024-03-25T07:50:04;14.40;99.90
44763;DHT22;30483;49.576;6.036;2024-03-25T07:52:31;14.40;99.90
44763;DHT22;30483;49.576;6.036;2024-03-25T07:54:57;14.50;99.90
44763;DHT22;30483;49.576;6.036;2024-03-25T07:57:23;14.40;99.90
44763;DHT22;30483;49.576;6.036;2024-03-25T07:59:49;14.50;99.90
44763;DHT22;30483;49.576;6.036;2024-03-25T08:02:15;14.50;99.90
44763;DHT22;30483;49.576;6.036;2024-03-25T08:04:40;14.50;99.90
44763;DHT22;30483;49.576;6.036;2024-03-25T08:07:06;14.60;99.90
44763;DHT22;30483;49.576;6.036;2024-03-25T08:09:32;14.60;99.90
44763;DHT22;30483;49.576;6.036;2024-03-25T08:11:58;14.60;99.90
44763;DHT22;30483;49.576;6.036;2024-03-25T08:14:23;14.60;99.90
44763;DHT22;30483;49.576;6.036;2024-03-25T08:16:49;14.50;99.90
44763;DHT22;30483;49.576;6.036;2024-03-25T08:19:15;14.50;99.90
44763;DHT22;30483;49.576;6.036;2024-03-25T08:21:40;14.50;99.90
44763;DHT22;30483;49.576;6.036;2024-03-25T08:24:06;14.50;99.90
44763;DHT22;30483;49.576;6.036;2024-03-25T08:26:32;14.50;99.90
44763;DHT22;30483;49.576;6.036;2024-03-25T08:28:58;14.50;99.90
44763;DHT22;30483;49.576;6.036;2024-03-25T08:31:24;14.50;99.90
44763;DHT22;30483;49.576;6.036;2024-03-25T08:33:49;14.30;99.90
44763;DHT22;30483;49.576;6.036;2024-03-25T08:36:15;14.20;99.90
44763;DHT22;30483;49.576;6.036;2024-03-25T08:38:41;14.10;99.90
44763;DHT22;30483;49.576;6.036;2024-03-25T08:41:07;14.20;99.90
44763;DHT22;30483;49.576;6.036;2024-03-25T08:43:32;14.20;99.90
44763;DHT22;30483;49.576;6.036;2024-03-25T08:45:58;14.20;99.90
44763;DHT22;30483;49.576;6.036;2024-03-25T08:48:24;14.30;99.90
44763;DHT22;30483;49.576;6.036;2024-03-25T08:50:49;14.30;99.90
44763;DHT22;30483;49.576;6.036;2024-03-25T08:53:15;14.40;99.90
44763;DHT22;30483;49.576;6.036;2024-03-25T08:55:47;14.40;99.90
44763;DHT22;30483;49.576;6.036;2024-03-25T08:58:14;14.40;99.90
44763;DHT22;30483;49.576;6.036;2024-03-25T09:00:40;14.50;99.90
44763;DHT22;30483;49.576;6.036;2024-03-25T09:03:06;14.50;99.90
44763;DHT22;30483;49.576;6.036;2024-03-25T09:05:31;14.50;99.90
44763;DHT22;30483;49.576;6.036;2024-03-25T09:07:57;14.50;99.90
44763;DHT22;30483;49.576;6.036;2024-03-25T09:10:24;14.50;99.90
44763;DHT22;30483;49.576;6.036;2024-03-25T09:13:11;14.50;99.90
44763;DHT22;30483;49.576;6.036;2024-03-25T09:15:36;14.60;99.90
44763;DHT22;30483;49.576;6.036;2024-03-25T09:18:02;14.60;99.90
44763;DHT22;30483;49.576;6.036;2024-03-25T09:20:28;14.60;99.90
44763;DHT22;30483;49.576;6.036;2024-03-25T09:22:54;14.60;99.90
44763;DHT22;30483;49.576;6.036;2024-03-25T09:25:19;14.60;99.90
44763;DHT22;30483;49.576;6.036;2024-03-25T09:27:49;14.60;99.90
44763;DHT22;30483;49.576;6.036;2024-03-25T09:30:15;14.30;99.90
44763;DHT22;30483;49.576;6.036;2024-03-25T09:32:41;14.10;99.90
44763;DHT22;30483;49.576;6.036;2024-03-25T09:35:10;13.80;99.90
44763;DHT22;30483;49.576;6.036;2024-03-25T09:37:36;13.60;99.90
44763;DHT22;30483;49.576;6.036;2024-03-25T09:40:03;13.50;99.90
44763;DHT22;30483;49.576;6.036;2024-03-25T09:42:42;13.40;99.90
44763;DHT22;30483;49.576;6.036;2024-03-25T09:45:09;13.30;99.90
44763;DHT22;30483;49.576;6.036;2024-03-25T09:47:39;13.50;99.90
44763;DHT22;30483;49.576;6.036;2024-03-25T09:50:06;13.60;99.90
44763;DHT22;30483;49.576;6.036;2024-03-25T09:52:33;13.80;99.90
44763;DHT22;30483;49.576;6.036;2024-03-25T09:54:59;13.90;99.90
44763;DHT22;30483;49.576;6.036;2024-03-25T09:57:25;14.10;99.90
44763;DHT22;30483;49.576;6.036;2024-03-25T09:59:51;14.20;99.90
44763;DHT22;30483;49.576;6.036;2024-03-25T10:02:17;14.20;99.90
44763;DHT22;30483;49.576;6.036;2024-03-25T10:04:48;14.30;99.90
44763;DHT22;30483;49.576;6.036;2024-03-25T10:07:23;14.40;99.90
44763;DHT22;30483;49.576;6.036;2024-03-25T10:09:52;14.50;99.90
44763;DHT22;30483;49.576;6.036;2024-03-25T10:12:18;14.50;99.90
44763;DHT22;30483;49.576;6.036;2024-03-25T10:14:44;14.60;99.90
44763;DHT22;30483;49.576;6.036;2024-03-25T10:17:09;14.60;99.90
44763;DHT22;30483;49.576;6.036;2024-03-25T10:19:35;14.60;99.90
44763;DHT22;30483;49.576;6.036;2024-03-25T10:22:05;14.60;99.90
44763;DHT22;30483;49.576;6.036;2024-03-25T10:24:43;14.60;99.90
44763;DHT22;30483;49.576;6.036;2024-03-25T10:27:23;14.60;99.90
44763;DHT22;30483;49.576;6.036;2024-03-25T10:29:52;14.60;99.90
44763;DHT22;30483;49.576;6.036;2024-03-25T10:32:18;14.60;99.90
44763;DHT22;30483;49.576;6.036;2024-03-25T10:34:44;14.70;99.90
44763;DHT22;30483;49.576;6.036;2024-03-25T10:37:11;14.70;99.90
44763;DHT22;30483;49.576;6.036;2024-03-25T10:39:50;14.70;99.90
44763;DHT22;30483;49.576;6.036;2024-03-25T10:42:19;14.70;99.90
44763;DHT22;30483;49.576;6.036;2024-03-25T10:44:45;14.70;99.90
44763;DHT22;30483;49.576;6.036;2024-03-25T10:47:20;14.70;99.90
44763;DHT22;30483;49.576;6.036;2024-03-25T10:49:58;14.70;99.90
44763;DHT22;30483;49.576;6.036;2024-03-25T10:52:28;14.70;99.90
44763;DHT22;30483;49.576;6.036;2024-03-25T10:54:55;14.80;99.90
44763;DHT22;30483;49.576;6.036;2024-03-25T10:57:22;14.80;99.90
44763;DHT22;30483;49.576;6.036;2024-03-25T10:59:49;14.80;99.90
44763;DHT22;30483;49.576;6.036;2024-03-25T11:02:44;14.80;99.90
44763;DHT22;30483;49.576;6.036;2024-03-25T11:05:11;14.80;99.90
44763;DHT22;30483;49.576;6.036;2024-03-25T11:07:37;14.80;99.90
44763;DHT22;30483;49.576;6.036;2024-03-25T11:10:06;14.80;99.90
44763;DHT22;30483;49.576;6.036;2024-03-25T11:12:36;14.70;99.90
44763;DHT22;30483;49.576;6.036;2024-03-25T11:15:03;14.80;99.90
44763;DHT22;30483;49.576;6.036;2024-03-25T11:17:30;14.80;99.90
44763;DHT22;30483;49.576;6.036;2024-03-25T11:20:13;14.80;99.90
44763;DHT22;30483;49.576;6.036;2024-03-25T11:22:51;14.80;99.90
44763;DHT22;30483;49.576;6.036;2024-03-25T11:25:19;14.80;99.90
44763;DHT22;30483;49.576;6.036;2024-03-25T11:27:46;14.80;99.90
44763;DHT22;30483;49.576;6.036;2024-03-25T11:30:13;14.80;99.90
44763;DHT22;30483;49.576;6.036;2024-03-25T11:32:54;14.80;99.90
44763;DHT22;30483;49.576;6.036;2024-03-25T11:35:20;14.80;99.90
44763;DHT22;30483;49.576;6.036;2024-03-25T11:37:47;14.80;99.90
44763;DHT22;30483;49.576;6.036;2024-03-25T11:40:13;14.90;99.90
44763;DHT22;30483;49.576;6.036;2024-03-25T11:42:42;14.90;99.90
44763;DHT22;30483;49.576;6.036;2024-03-25T11:45:17;14.90;99.90
44763;DHT22;30483;49.576;6.036;2024-03-25T11:47:44;14.90;99.90
44763;DHT22;30483;49.576;6.036;2024-03-25T11:50:12;14.90;99.90
44763;DHT22;30483;49.576;6.036;2024-03-25T11:52:39;14.90;99.90
44763;DHT22;30483;49.576;6.036;2024-03-25T11:55:05;14.90;99.90
44763;DHT22;30483;49.576;6.036;2024-03-25T11:57:30;14.90;99.90
44763;DHT22;30483;49.576;6.036;2024-03-25T11:59:58;14.90;99.90
44763;DHT22;30483;49.576;6.036;2024-03-25T12:02:24;14.90;99.90
44763;DHT22;30483;49.576;6.036;2024-03-25T12:04:50;14.90;99.90
44763;DHT22;30483;49.576;6.036;2024-03-25T12:07:16;14.90;99.90
44763;DHT22;30483;49.576;6.036;2024-03-25T12:09:41;14.90;99.90
44763;DHT22;30483;49.576;6.036;2024-03-25T12:12:26;14.90;99.90
44763;DHT22;30483;49.576;6.036;2024-03-25T12:14:55;14.90;99.90
44763;DHT22;30483;49.576;6.036;2024-03-25T12:17:22;14.90;99.90
44763;DHT22;30483;49.576;6.036;2024-03-25T12:20:03;14.90;99.90
44763;DHT22;30483;49.576;6.036;2024-03-25T12:22:30;14.90;99.90
44763;DHT22;30483;49.576;6.036;2024-03-25T12:25:00;14.90;99.90
44763;DHT22;30483;49.576;6.036;2024-03-25T12:27:28;14.90;99.90
44763;DHT22;30483;49.576;6.036;2024-03-25T12:30:01;14.90;99.90
44763;DHT22;30483;49.576;6.036;2024-03-25T12:32:43;14.90;99.90
44763;DHT22;30483;49.576;6.036;2024-03-25T12:35:16;14.90;99.90
44763;DHT22;30483;49.576;6.036;2024-03-25T12:37:46;14.90;99.90
44763;DHT22;30483;49.576;6.036;2024-03-25T12:40:32;14.90;99.90
44763;DHT22;30483;49.576;6.036;2024-03-25T12:42:58;14.90;99.90
44763;DHT22;30483;49.576;6.036;2024-03-25T12:45:24;14.90;99.90
44763;DHT22;30483;49.576;6.036;2024-03-25T12:47:53;14.90;99.90
44763;DHT22;30483;49.576;6.036;2024-03-25T12:50:18;14.90;99.90
44763;DHT22;30483;49.576;6.036;2024-03-25T12:52:44;14.90;99.90
44763;DHT22;30483;49.576;6.036;2024-03-25T12:55:18;14.90;99.90
44763;DHT22;30483;49.576;6.036;2024-03-25T12:57:44;14.80;99.90
44763;DHT22;30483;49.576;6.036;2024-03-25T13:00:10;14.90;99.90
44763;DHT22;30483;49.576;6.036;2024-03-25T13:02:36;14.90;99.90
44763;DHT22;30483;49.576;6.036;2024-03-25T13:05:01;14.80;99.90
44763;DHT22;30483;49.576;6.036;2024-03-25T13:07:27;14.90;99.90
44763;DHT22;30483;49.576;6.036;2024-03-25T13:09:53;14.80;99.90
44763;DHT22;30483;49.576;6.036;2024-03-25T13:12:18;14.90;99.90
44763;DHT22;30483;49.576;6.036;2024-03-25T13:14:44;14.90;99.90
44763;DHT22;30483;49.576;6.036;2024-03-25T13:17:09;14.90;99.90
44763;DHT22;30483;49.576;6.036;2024-03-25T13:19:35;14.80;99.90
44763;DHT22;30483;49.576;6.036;2024-03-25T13:22:00;14.90;99.90
44763;DHT22;30483;49.576;6.036;2024-03-25T13:24:26;14.90;99.90
44763;DHT22;30483;49.576;6.036;2024-03-25T13:26:52;14.90;99.90
44763;DHT22;30483;49.576;6.036;2024-03-25T13:36:36;14.90;99.90
44763;DHT22;30483;49.576;6.036;2024-03-25T14:08:18;14.90;99.90
44763;DHT22;30483;49.576;6.036;2024-03-25T14:10:44;14.90;99.90
44763;DHT22;30483;49.576;6.036;2024-03-25T14:13:09;14.90;99.90
44763;DHT22;30483;49.576;6.036;2024-03-25T14:15:36;14.90;99.90
44763;DHT22;30483;49.576;6.036;2024-03-25T14:18:02;14.90;99.90
44763;DHT22;30483;49.576;6.036;2024-03-25T14:20:27;14.90;99.90
44763;DHT22;30483;49.576;6.036;2024-03-25T14:22:53;14.90;99.90
44763;DHT22;30483;49.576;6.036;2024-03-25T14:25:18;14.90;99.90
44763;DHT22;30483;49.576;6.036;2024-03-25T14:27:45;14.90;99.90
44763;DHT22;30483;49.576;6.036;2024-03-25T14:30:11;14.90;99.90
44763;DHT22;30483;49.576;6.036;2024-03-25T14:32:37;14.90;99.90
44763;DHT22;30483;49.576;6.036;2024-03-25T14:35:05;14.90;99.90
44763;DHT22;30483;49.576;6.036;2024-03-25T14:37:32;14.90;99.90
44763;DHT22;30483;49.576;6.036;2024-03-25T14:39:58;14.90;99.90
44763;DHT22;30483;49.576;6.036;2024-03-25T14:42:24;14.90;99.90
44763;DHT22;30483;49.576;6.036;2024-03-25T14:44:50;14.90;99.90
44763;DHT22;30483;49.576;6.036;2024-03-25T14:47:16;14.90;99.90
44763;DHT22;30483;49.576;6.036;2024-03-25T14:49:41;14.90;99.90
44763;DHT22;30483;49.576;6.036;2024-03-25T14:52:07;14.90;99.90
44763;DHT22;30483;49.576;6.036;2024-03-25T14:54:33;14.90;99.90
44763;DHT22;30483;49.576;6.036;2024-03-25T14:57:00;14.90;99.90
44763;DHT22;30483;49.576;6.036;2024-03-25T14:59:29;14.90;99.90
44763;DHT22;30483;49.576;6.036;2024-03-25T15:01:59;14.90;99.90
44763;DHT22;30483;49.576;6.036;2024-03-25T15:04:25;14.90;99.90
44763;DHT22;30483;49.576;6.036;2024-03-25T15:06:50;14.90;99.90
44763;DHT22;30483;49.576;6.036;2024-03-25T15:09:16;14.90;99.90
44763;DHT22;30483;49.576;6.036;2024-03-25T15:11:41;14.90;99.90
44763;DHT22;30483;49.576;6.036;2024-03-25T15:14:07;14.90;99.90
44763;DHT22;30483;49.576;6.036;2024-03-25T15:16:33;14.90;99.90
44763;DHT22;30483;49.576;6.036;2024-03-25T15:18:59;14.90;99.90
44763;DHT22;30483;49.576;6.036;2024-03-25T15:21:24;14.90;99.90
44763;DHT22;30483;49.576;6.036;2024-03-25T15:23:50;14.90;99.90
44763;DHT22;30483;49.576;6.036;2024-03-25T15:26:16;14.90;99.90
44763;DHT22;30483;49.576;6.036;2024-03-25T15:28:41;14.90;99.90
44763;DHT22;30483;49.576;6.036;2024-03-25T15:31:07;14.90;99.90
44763;DHT22;30483;49.576;6.036;2024-03-25T15:33:32;14.90;99.90
44763;DHT22;30483;49.576;6.036;2024-03-25T15:35:59;14.90;99.90
44763;DHT22;30483;49.576;6.036;2024-03-25T15:38:24;14.90;99.90
44763;DHT22;30483;49.576;6.036;2024-03-25T15:40:50;14.90;99.90
44763;DHT22;30483;49.576;6.036;2024-03-25T15:43:21;14.90;99.90
44763;DHT22;30483;49.576;6.036;2024-03-25T15:45:59;14.90;99.90
44763;DHT22;30483;49.576;6.036;2024-03-25T15:48:25;14.90;99.90
44763;DHT22;30483;49.576;6.036;2024-03-25T15:50:52;14.90;99.90
44763;DHT22;30483;49.576;6.036;2024-03-25T15:53:17;14.90;99.90
44763;DHT22;30483;49.576;6.036;2024-03-25T15:55:44;14.90;99.90
44763;DHT22;30483;49.576;6.036;2024-03-25T15:58:09;14.90;99.90
44763;DHT22;30483;49.576;6.036;2024-03-25T16:00:35;14.80;99.90
44763;DHT22;30483;49.576;6.036;2024-03-25T16:03:02;14.80;99.90
44763;DHT22;30483;49.576;6.036;2024-03-25T16:05:28;14.80;99.90
44763;DHT22;30483;49.576;6.036;2024-03-25T16:07:54;14.90;99.90
44763;DHT22;30483;49.576;6.036;2024-03-25T16:10:23;14.90;99.90
44763;DHT22;30483;49.576;6.036;2024-03-25T16:12:49;14.90;99.90
44763;DHT22;30483;49.576;6.036;2024-03-25T16:15:16;14.90;99.90
44763;DHT22;30483;49.576;6.036;2024-03-25T16:17:42;14.90;99.90
44763;DHT22;30483;49.576;6.036;2024-03-25T16:20:10;14.90;99.90
44763;DHT22;30483;49.576;6.036;2024-03-25T16:22:35;14.90;99.90
44763;DHT22;30483;49.576;6.036;2024-03-25T16:25:02;14.90;99.90
44763;DHT22;30483;49.576;6.036;2024-03-25T16:27:29;14.80;99.90
44763;DHT22;30483;49.576;6.036;2024-03-25T16:29:56;14.90;99.90
44763;DHT22;30483;49.576;6.036;2024-03-25T16:32:23;14.90;99.90
44763;DHT22;30483;49.576;6.036;2024-03-25T16:34:49;14.90;99.90
44763;DHT22;30483;49.576;6.036;2024-03-25T16:37:14;14.90;99.90
44763;DHT22;30483;49.576;6.036;2024-03-25T16:39:42;14.90;99.90
44763;DHT22;30483;49.576;6.036;2024-03-25T16:42:08;14.80;99.90
44763;DHT22;30483;49.576;6.036;2024-03-25T16:44:36;14.80;99.90
44763;DHT22;30483;49.576;6.036;2024-03-25T16:47:02;14.80;99.90
44763;DHT22;30483;49.576;6.036;2024-03-25T16:49:30;14.90;99.90
44763;DHT22;30483;49.576;6.036;2024-03-25T16:51:57;14.80;99.90
44763;DHT22;30483;49.576;6.036;2024-03-25T16:54:23;14.90;99.90
44763;DHT22;30483;49.576;6.036;2024-03-25T16:56:48;14.80;99.90
44763;DHT22;30483;49.576;6.036;2024-03-25T16:59:14;14.90;99.90
44763;DHT22;30483;49.576;6.036;2024-03-25T17:01:40;14.80;99.90
44763;DHT22;30483;49.576;6.036;2024-03-25T17:04:05;14.90;99.90
44763;DHT22;30483;49.576;6.036;2024-03-25T17:06:31;14.90;99.90
44763;DHT22;30483;49.576;6.036;2024-03-25T17:08:57;14.90;99.90
44763;DHT22;30483;49.576;6.036;2024-03-25T17:11:22;14.80;99.90
44763;DHT22;30483;49.576;6.036;2024-03-25T17:13:48;14.80;99.90
44763;DHT22;30483;49.576;6.036;2024-03-25T17:16:14;14.80;99.90
44763;DHT22;30483;49.576;6.036;2024-03-25T17:18:39;14.80;99.90
44763;DHT22;30483;49.576;6.036;2024-03-25T17:21:06;14.80;99.90
44763;DHT22;30483;49.576;6.036;2024-03-25T17:23:32;14.80;99.90
44763;DHT22;30483;49.576;6.036;2024-03-25T17:26:01;14.90;99.90
44763;DHT22;30483;49.576;6.036;2024-03-25T17:28:27;14.90;99.90
44763;DHT22;30483;49.576;6.036;2024-03-25T17:31:02;14.90;99.90
44763;DHT22;30483;49.576;6.036;2024-03-25T17:33:28;15.00;99.90
44763;DHT22;30483;49.576;6.036;2024-03-25T17:35:53;15.10;99.90
44763;DHT22;30483;49.576;6.036;2024-03-25T17:38:19;15.20;99.90
44763;DHT22;30483;49.576;6.036;2024-03-25T17:40:45;15.30;99.90
44763;DHT22;30483;49.576;6.036;2024-03-25T17:43:10;15.40;99.90
44763;DHT22;30483;49.576;6.036;2024-03-25T17:45:39;15.40;99.90
44763;DHT22;30483;49.576;6.036;2024-03-25T17:48:05;15.50;99.90
44763;DHT22;30483;49.576;6.036;2024-03-25T17:50:31;15.60;99.90
44763;DHT22;30483;49.576;6.036;2024-03-25T17:52:57;15.60;99.90
44763;DHT22;30483;49.576;6.036;2024-03-25T17:55:23;15.70;99.90
44763;DHT22;30483;49.576;6.036;2024-03-25T17:57:48;15.70;99.90
44763;DHT22;30483;49.576;6.036;2024-03-25T18:00:14;15.80;99.90
44763;DHT22;30483;49.576;6.036;2024-03-25T18:02:40;15.80;99.90
44763;DHT22;30483;49.576;6.036;2024-03-25T18:05:05;15.80;99.90
44763;DHT22;30483;49.576;6.036;2024-03-25T18:07:31;15.90;99.90
44763;DHT22;30483;49.576;6.036;2024-03-25T18:09:58;15.90;99.90
44763;DHT22;30483;49.576;6.036;2024-03-25T18:12:25;15.90;99.90
44763;DHT22;30483;49.576;6.036;2024-03-25T18:14:51;15.90;99.90
44763;DHT22;30483;49.576;6.036;2024-03-25T18:17:16;15.90;99.90
44763;DHT22;30483;49.576;6.036;2024-03-25T18:19:42;15.90;99.90
44763;DHT22;30483;49.576;6.036;2024-03-25T18:22:08;15.90;99.90
44763;DHT22;30483;49.576;6.036;2024-03-25T18:24:34;15.90;99.90
44763;DHT22;30483;49.576;6.036;2024-03-25T18:27:01;15.90;99.90
44763;DHT22;30483;49.576;6.036;2024-03-25T18:29:30;15.90;99.90
44763;DHT22;30483;49.576;6.036;2024-03-25T18:31:56;16.00;99.90
44763;DHT22;30483;49.576;6.036;2024-03-25T18:34:22;16.00;99.90
44763;DHT22;30483;49.576;6.036;2024-03-25T18:36:48;16.00;99.90
44763;DHT22;30483;49.576;6.036;2024-03-25T18:39:14;16.00;99.90
44763;DHT22;30483;49.576;6.036;2024-03-25T18:41:40;16.00;99.90
44763;DHT22;30483;49.576;6.036;2024-03-25T18:44:06;16.00;99.90
44763;DHT22;30483;49.576;6.036;2024-03-25T18:46:32;16.00;99.90
44763;DHT22;30483;49.576;6.036;2024-03-25T18:48:57;15.90;99.90
44763;DHT22;30483;49.576;6.036;2024-03-25T18:51:23;16.00;99.90
44763;DHT22;30483;49.576;6.036;2024-03-25T18:53:49;16.00;99.90
44763;DHT22;30483;49.576;6.036;2024-03-25T18:56:15;16.00;99.90
44763;DHT22;30483;49.576;6.036;2024-03-25T18:58:41;16.00;99.90
44763;DHT22;30483;49.576;6.036;2024-03-25T19:01:07;16.00;99.90
44763;DHT22;30483;49.576;6.036;2024-03-25T19:03:36;16.00;99.90
44763;DHT22;30483;49.576;6.036;2024-03-25T19:06:02;16.00;99.80
44763;DHT22;30483;49.576;6.036;2024-03-25T19:08:28;15.90;99.70
44763;DHT22;30483;49.576;6.036;2024-03-25T19:10:55;15.90;99.70
44763;DHT22;30483;49.576;6.036;2024-03-25T19:13:20;15.90;99.70
44763;DHT22;30483;49.576;6.036;2024-03-25T19:15:48;15.90;99.70
44763;DHT22;30483;49.576;6.036;2024-03-25T19:18:14;15.90;99.70
44763;DHT22;30483;49.576;6.036;2024-03-25T19:20:39;16.00;99.90
44763;DHT22;30483;49.576;6.036;2024-03-25T19:23:06;16.00;99.90
44763;DHT22;30483;49.576;6.036;2024-03-25T19:25:32;15.90;99.90
44763;DHT22;30483;49.576;6.036;2024-03-25T19:27:58;15.90;99.90
44763;DHT22;30483;49.576;6.036;2024-03-25T19:30:23;15.90;99.90
44763;DHT22;30483;49.576;6.036;2024-03-25T19:32:49;15.90;99.90
44763;DHT22;30483;49.576;6.036;2024-03-25T19:35:15;15.90;99.90
44763;DHT22;30483;49.576;6.036;2024-03-25T19:37:41;15.90;99.90
44763;DHT22;30483;49.576;6.036;2024-03-25T19:40:07;15.90;99.90
44763;DHT22;30483;49.576;6.036;2024-03-25T19:42:33;15.90;99.90
44763;DHT22;30483;49.576;6.036;2024-03-25T19:44:58;15.90;99.90
44763;DHT22;30483;49.576;6.036;2024-03-25T19:47:24;15.90;99.90
44763;DHT22;30483;49.576;6.036;2024-03-25T19:49:57;15.90;99.90
44763;DHT22;30483;49.576;6.036;2024-03-25T19:52:23;15.80;99.90
44763;DHT22;30483;49.576;6.036;2024-03-25T19:54:52;15.80;99.90
44763;DHT22;30483;49.576;6.036;2024-03-25T19:57:18;15.80;99.90
44763;DHT22;30483;49.576;6.036;2024-03-25T19:59:45;15.80;99.90
44763;DHT22;30483;49.576;6.036;2024-03-25T20:02:10;15.80;99.90
44763;DHT22;30483;49.576;6.036;2024-03-25T20:04:36;15.80;99.90
44763;DHT22;30483;49.576;6.036;2024-03-25T20:07:02;15.80;99.80
44763;DHT22;30483;49.576;6.036;2024-03-25T20:09:27;15.80;99.80
44763;DHT22;30483;49.576;6.036;2024-03-25T20:11:53;15.80;99.80
44763;DHT22;30483;49.576;6.036;2024-03-25T20:14:18;15.80;99.80
44763;DHT22;30483;49.576;6.036;2024-03-25T20:16:44;15.80;99.70
44763;DHT22;30483;49.576;6.036;2024-03-25T20:19:10;15.70;99.70
44763;DHT22;30483;49.576;6.036;2024-03-25T20:21:39;15.70;99.70
44763;DHT22;30483;49.576;6.036;2024-03-25T20:24:09;15.70;99.60
44763;DHT22;30483;49.576;6.036;2024-03-25T20:26:36;15.70;99.60
44763;DHT22;30483;49.576;6.036;2024-03-25T20:29:01;15.70;99.60
44763;DHT22;30483;49.576;6.036;2024-03-25T20:31:27;15.70;99.60
44763;DHT22;30483;49.576;6.036;2024-03-25T20:33:53;15.70;99.60
44763;DHT22;30483;49.576;6.036;2024-03-25T20:36:19;15.70;99.90